Fayetteville, GA (30215)

9:45 AM EST on February 28, 2015 (GMT -0500)
AB4KN | Change Station
CLOSE
Current Station
Personal Weather Station
Location: Fayetteville (Woolsey), GA
Elevation: 880 ft
Nearby Weather Stations

Elev 880 ft 33.34 °N, 84.45 °W | Updated 18 seconds ago

Partly Cloudy
Partly Cloudy
41.4 °F
Feels Like 41 °F
N
1.4
Wind Variable Wind from ESE
Gusts 5.0 mph

Today
High -- | Low -- °F
--% Chance of Precip.
Yesterday
High -- | Low -- °F
Precip. -- in
7:07 AM 6:33 PM
Waxing Gibbous, 78% visible
Pressure 30.59 in
Visibility 7.0 miles
Clouds Clear
Windchill 41 °F
Dew Point 33 °F
Humidity 71%
Rainfall 0.00 in
Snow Depth Not available.
UV 2 out of 12
Pollen 7.80 out of 12
Air Quality Not available.
Flu Activity Not available.
METAR KFFC 281353Z AUTO 08005KT 7SM CLR 04/00 A3056 RMK AO2 SLP357 T00390000

More Conditions Fewer Conditions

Pressure 30.59 in
Visibility 7.0 miles
Clouds Clear
Windchill 41 °F
Dew Point 33 °F
Humidity 71%
Rainfall 0.00 in
Snow Depth Not available.
UV 2 out of 12
Pollen 7.80 out of 12
Air Quality Not available.
Flu Activity Not available.
METAR KFFC 281353Z AUTO 08005KT 7SM CLR 04/00 A3056 RMK AO2 SLP357 T00390000

More Conditions Fewer Conditions

10-Day Weather Forecast

Almanac

Astronomy

Feb. 28, 2015 Rise Set
Actual Time
Civil Twilight
Nautical Twilight
Astronomical Twilight
Moon
Length of Visible Light
Length of Day
Tomorrow will be .
, % of the Moon is Illuminated

Today's Extremes

State Highs State Lows

Community

WunderPhotos

Upload Photos

1,801,025 photos uploaded!

WunderBlogs® & News

Nearby

Air Quality

  Air Quality AQ Index Pollutant
Not available.

Snow Depth

Station Depth Elevation

Earthquake Activity

City Distance Mag. Time & Date
Minimum magnitude displayed is 2.5.

Coastal Water Temperatures

Place Temperature

Nearby Weather Stations